Time;durP1;ratioP1;P1;durP2;ratioP2;P2;SDS_P1;SDS_P2;PMS_P1;PMS_P2;Temp;Humidity;BMP_temperature;BMP_pressure;BME280_temperature;BME280_humidity;BME280_pressure;Samples;Min_cycle;Max_cycle;Signal;HPM_P1;HPM_P2
2021/05/24 00:00:52;;;;;;;7.63;6.75;;;;;;;16.30;91.54;97191.72;4928055;29;20541;-61
2021/05/24 00:03:17;;;;;;;6.93;6.28;;;;;;;16.30;92.35;97200.09;4928592;29;20039;-61
2021/05/24 00:05:43;;;;;;;7.20;6.60;;;;;;;16.23;93.77;97200.91;4928174;29;20478;-61
2021/05/24 00:08:09;;;;;;;7.47;6.68;;;;;;;16.25;94.08;97192.94;4928455;29;20427;-61
2021/05/24 00:10:37;;;;;;;8.38;7.20;;;;;;;16.10;93.77;97176.59;4928153;29;20039;-62
2021/05/24 00:13:10;;;;;;;7.75;6.28;;;;;;;16.15;92.99;97192.97;4928076;29;20031;-62
2021/05/24 00:15:37;;;;;;;7.72;6.93;;;;;;;16.25;92.61;97197.72;4926295;29;20042;-62
2021/05/24 00:18:03;;;;;;;7.35;6.72;;;;;;;15.88;92.99;97147.94;4928238;29;20031;-62
2021/05/24 00:20:32;;;;;;;7.40;6.60;;;;;;;16.24;92.71;97193.34;4927766;29;20451;-62
2021/05/24 00:22:58;;;;;;;10.52;7.10;;;;;;;15.74;91.21;97100.47;4928485;29;20534;-62
2021/05/24 00:25:23;;;;;;;7.72;7.00;;;;;;;16.31;89.36;97196.91;4927700;29;20051;-63
2021/05/24 00:27:50;;;;;;;7.60;6.90;;;;;;;16.08;89.14;97165.84;4928171;29;20066;-62
2021/05/24 00:30:16;;;;;;;8.00;7.20;;;;;;;15.73;91.44;97143.56;4927256;29;20519;-62
2021/05/24 00:32:42;;;;;;;9.05;7.90;;;;;;;14.93;97.86;97141.53;4927722;29;20039;-62
2021/05/24 00:35:09;;;;;;;15.73;10.57;;;;;;;15.45;97.80;97199.41;4926005;28;20063;-62
2021/05/24 00:37:35;;;;;;;11.70;9.65;;;;;;;15.63;97.56;97200.22;4927945;29;20031;-62
2021/05/24 00:40:01;;;;;;;14.77;10.25;;;;;;;15.45;97.00;97154.75;4928612;29;20532;-63
2021/05/24 00:42:26;;;;;;;11.75;8.82;;;;;;;15.62;96.03;97179.06;4927697;29;20434;-63
2021/05/24 00:44:52;;;;;;;8.80;7.75;;;;;;;15.19;96.31;97094.50;4928287;29;20115;-63
2021/05/24 00:47:18;;;;;;;9.23;8.00;;;;;;;15.87;95.98;97193.03;4925765;29;20038;-62
2021/05/24 00:49:44;;;;;;;8.50;7.68;;;;;;;15.96;95.26;97191.41;4925873;29;20040;-62
2021/05/24 00:52:13;;;;;;;7.40;6.70;;;;;;;15.97;95.11;97209.78;4926879;29;20036;-63
2021/05/24 00:54:39;;;;;;;7.75;6.95;;;;;;;15.73;95.55;97143.56;4958517;28;20522;-64
2021/05/24 00:57:07;;;;;;;10.38;6.75;;;;;;;16.05;94.84;97177.81;4927142;29;20043;-62
2021/05/24 00:59:33;;;;;;;9.48;6.70;;;;;;;15.67;94.52;97117.22;4927524;29;20110;-63
2021/05/24 01:01:59;;;;;;;7.28;6.60;;;;;;;15.68;94.06;97129.22;4925674;29;20604;-62
2021/05/24 01:04:24;;;;;;;7.35;6.72;;;;;;;15.80;93.57;97177.06;4926942;29;20036;-64
2021/05/24 01:06:54;;;;;;;18.33;12.23;;;;;;;15.65;96.20;97192.22;4927526;29;20498;-63
2021/05/24 01:09:19;;;;;;;10.93;8.07;;;;;;;15.64;95.74;97157.13;4926742;29;20036;-63
2021/05/24 01:11:48;;;;;;;8.43;7.63;;;;;;;13.49;96.61;96816.09;4926445;29;20106;-63
2021/05/24 01:14:14;;;;;;;8.50;7.35;;;;;;;15.77;95.63;97180.66;4927314;29;20090;-63
2021/05/24 01:16:43;;;;;;;7.72;7.05;;;;;;;15.83;94.18;97192.22;4957215;28;20047;-62
2021/05/24 01:19:09;;;;;;;9.70;7.45;;;;;;;15.71;94.48;97182.25;4927066;29;20038;-64
2021/05/24 01:21:34;;;;;;;7.38;6.75;;;;;;;15.71;95.24;97176.66;4925501;29;20048;-63
2021/05/24 01:24:00;;;;;;;8.00;7.05;;;;;;;15.70;94.59;97166.69;4956579;28;20498;-63
2021/05/24 01:26:26;;;;;;;7.47;6.75;;;;;;;14.85;96.11;97059.03;4925840;29;20036;-63
2021/05/24 01:28:52;;;;;;;7.18;6.53;;;;;;;15.51;94.85;97141.16;4924584;29;20422;-63
2021/05/24 01:31:17;;;;;;;8.35;7.20;;;;;;;15.25;95.50;97117.25;4955751;28;20408;-62
2021/05/24 01:33:43;;;;;;;9.85;6.57;;;;;;;15.09;96.79;97102.91;4956112;28;20042;-64
2021/05/24 01:36:11;;;;;;;8.38;7.15;;;;;;;15.38;97.29;97163.13;4925998;29;20044;-63
2021/05/24 01:38:38;;;;;;;10.10;7.20;;;;;;;15.09;96.52;97120.41;4956598;28;20637;-63
2021/05/24 01:41:05;;;;;;;11.23;7.35;;;;;;;15.41;96.66;97176.31;4925938;29;20036;-62
2021/05/24 01:43:31;;;;;;;11.88;7.28;;;;;;;15.14;95.47;97127.63;4925592;29;20089;-63
2021/05/24 01:45:57;;;;;;;11.43;6.82;;;;;;;15.05;94.80;97146.72;4925647;29;20039;-63
2021/05/24 01:48:23;;;;;;;8.82;7.55;;;;;;;15.33;94.24;97180.25;4926196;29;20039;-62
2021/05/24 01:50:49;;;;;;;7.57;6.88;;;;;;;15.30;95.15;97181.03;4923643;28;20071;-63
2021/05/24 01:53:15;;;;;;;8.75;7.20;;;;;;;15.05;95.04;97138.34;4926135;29;20043;-63
2021/05/24 01:55:41;;;;;;;10.52;7.88;;;;;;;14.77;99.55;97197.69;4926101;29;20127;-62
2021/05/24 01:58:07;;;;;;;9.20;8.30;;;;;;;14.78;100.00;97182.53;4926712;29;20407;-63
2021/05/24 02:00:33;;;;;;;9.70;8.70;;;;;;;14.89;99.34;97182.59;4926411;29;20432;-63
2021/05/24 02:02:59;;;;;;;10.52;8.75;;;;;;;14.97;98.29;97193.34;4926235;29;20064;-63
2021/05/24 02:05:26;;;;;;;8.70;7.80;;;;;;;14.90;99.61;97179.41;4926206;29;20036;-63
2021/05/24 02:07:53;;;;;;;9.93;8.43;;;;;;;14.93;100.00;97200.09;4926608;29;20503;-63
2021/05/24 02:10:25;;;;;;;9.18;8.27;;;;;;;15.02;99.60;97187.38;4926595;29;20303;-63
2021/05/24 02:12:51;;;;;;;10.13;7.35;;;;;;;15.10;97.10;97182.59;4926827;29;20118;-63
2021/05/24 02:15:20;;;;;;;7.18;6.40;;;;;;;14.92;96.76;97153.91;4926398;29;20067;-63
2021/05/24 02:17:46;;;;;;;10.27;7.22;;;;;;;14.96;95.42;97160.25;4926346;29;20042;-62
2021/05/24 02:20:16;;;;;;;12.02;10.15;;;;;;;14.69;99.70;97195.25;4956587;28;20044;-63
2021/05/24 02:22:42;;;;;;;9.85;8.57;;;;;;;14.60;100.00;97203.19;4928863;29;20035;-63
2021/05/24 02:25:08;;;;;;;12.77;9.77;;;;;;;14.70;100.00;97188.50;4930397;29;20036;-63
2021/05/24 02:27:34;;;;;;;9.15;7.45;;;;;;;14.32;99.43;97125.06;4930933;29;20077;-63
2021/05/24 02:30:00;;;;;;;8.43;7.63;;;;;;;14.58;97.90;97144.22;4930194;29;20075;-62
2021/05/24 02:32:25;;;;;;;8.98;8.02;;;;;;;14.53;99.36;97158.53;4927978;29;20039;-62
2021/05/24 02:34:51;;;;;;;10.88;9.18;;;;;;;11.59;100.00;96719.03;4929940;29;20043;-63
2021/05/24 02:37:18;;;;;;;8.57;7.70;;;;;;;14.76;100.00;97198.84;4927907;29;20127;-63
2021/05/24 02:39:44;;;;;;;10.68;7.95;;;;;;;14.68;100.00;97199.25;4930060;29;20570;-63
2021/05/24 02:42:09;;;;;;;8.32;7.53;;;;;;;14.83;99.24;97218.41;4929789;29;20122;-63
2021/05/24 02:44:35;;;;;;;10.90;7.95;;;;;;;14.36;100.00;97232.56;4930073;29;20097;-64
2021/05/24 02:47:00;;;;;;;9.65;8.68;;;;;;;14.40;100.00;97232.56;4960002;28;20040;-63
2021/05/24 02:49:26;;;;;;;9.40;8.40;;;;;;;14.57;100.00;97232.66;4929760;29;20062;-62
2021/05/24 02:51:51;;;;;;;10.38;7.97;;;;;;;14.51;99.67;97216.69;4927657;29;20032;-62
2021/05/24 02:54:17;;;;;;;10.70;9.10;;;;;;;13.98;99.64;97145.94;4928248;29;20154;-63
2021/05/24 02:56:43;;;;;;;9.35;8.45;;;;;;;14.35;99.74;97183.56;4927797;29;20044;-64
2021/05/24 02:59:08;;;;;;;9.15;8.07;;;;;;;14.72;100.00;97227.91;4929476;29;20055;-63
2021/05/24 03:01:34;;;;;;;15.85;8.95;;;;;;;14.73;100.00;97246.28;4927863;29;20128;-64
2021/05/24 03:04:02;;;;;;;8.90;7.85;;;;;;;14.77;98.37;97245.09;4929899;29;20831;-64
2021/05/24 03:06:27;;;;;;;8.80;7.50;;;;;;;14.31;96.78;97201.47;4929790;29;20069;-65
2021/05/24 03:08:53;;;;;;;8.55;7.55;;;;;;;14.23;98.99;97202.56;4960261;28;20508;-64
2021/05/24 03:11:19;;;;;;;9.20;8.10;;;;;;;14.64;99.04;97254.97;4929162;29;20036;-64
2021/05/24 03:13:45;;;;;;;8.73;7.93;;;;;;;14.34;98.19;97206.25;4929225;29;20111;-64
2021/05/24 03:16:11;;;;;;;10.55;7.70;;;;;;;14.84;97.55;97247.09;4928580;29;20039;-63
2021/05/24 03:18:36;;;;;;;8.75;7.88;;;;;;;14.93;97.42;97255.91;4927637;29;20031;-64
2021/05/24 03:21:03;;;;;;;7.95;7.10;;;;;;;14.93;97.23;97267.06;4927366;29;20193;-64
2021/05/24 03:23:28;;;;;;;10.50;7.50;;;;;;;14.91;98.31;97270.25;4959980;28;20042;-64
2021/05/24 03:25:54;;;;;;;14.55;11.27;;;;;;;14.89;97.00;97271.84;4929032;29;20115;-63
2021/05/24 03:28:19;;;;;;;9.23;8.18;;;;;;;14.50;100.00;97271.66;4928669;29;20541;-65
2021/05/24 03:30:45;;;;;;;9.13;8.23;;;;;;;14.84;98.95;97277.78;4928705;29;20127;-64
2021/05/24 03:33:10;;;;;;;9.27;8.38;;;;;;;14.86;98.95;97262.25;4928249;29;20479;-64
2021/05/24 03:35:36;;;;;;;10.95;8.00;;;;;;;15.24;98.31;97297.03;4928698;29;20072;-64
2021/05/24 03:38:02;;;;;;;11.32;7.35;;;;;;;15.42;98.06;97283.16;4928967;29;20040;-64
2021/05/24 03:40:27;;;;;;;10.48;7.05;;;;;;;15.52;97.30;97294.38;4928604;29;20107;-64
2021/05/24 03:42:53;;;;;;;7.75;7.05;;;;;;;15.26;96.35;97241.63;4928579;29;20447;-64
2021/05/24 03:45:26;;;;;;;8.30;6.78;;;;;;;15.03;95.89;97166.66;4926362;29;20113;-63
2021/05/24 03:47:52;;;;;;;7.73;7.03;;;;;;;15.80;94.73;97280.44;4926515;29;20410;-65
2021/05/24 03:50:18;;;;;;;7.68;6.88;;;;;;;16.03;93.35;97286.41;4928007;29;20396;-64
2021/05/24 03:52:44;;;;;;;8.18;7.03;;;;;;;16.05;92.97;97272.03;4928686;29;20114;-63
2021/05/24 03:55:10;;;;;;;9.32;6.88;;;;;;;15.45;92.27;97168.72;4928289;29;20503;-63
2021/05/24 03:57:36;;;;;;;8.98;7.32;;;;;;;16.36;90.80;97277.56;4928724;29;20035;-64
2021/05/24 04:00:04;;;;;;;10.73;7.30;;;;;;;16.31;91.37;97269.59;4928843;29;20046;-63
2021/05/24 04:02:30;;;;;;;8.35;7.05;;;;;;;16.25;91.08;97226.47;4927909;29;20218;-63
2021/05/24 04:04:57;;;;;;;7.90;7.10;;;;;;;16.82;89.42;97290.69;4926717;29;20122;-63
2021/05/24 04:07:24;;;;;;;8.48;7.68;;;;;;;17.01;87.90;97301.41;4926276;29;20034;-63
2021/05/24 04:09:50;;;;;;;8.68;7.55;;;;;;;16.74;85.02;97222.75;4928734;29;20564;-63
2021/05/24 04:12:16;;;;;;;10.20;7.65;;;;;;;17.01;83.61;97267.81;4926066;29;20127;-63
2021/05/24 04:14:42;;;;;;;9.27;7.80;;;;;;;17.25;84.06;97300.47;4928356;29;20040;-63
2021/05/24 04:17:10;;;;;;;9.93;8.45;;;;;;;16.94;83.90;97262.25;4928199;29;20036;-64
2021/05/24 04:19:36;;;;;;;9.70;8.70;;;;;;;17.29;83.30;97312.47;4927730;29;20527;-63
2021/05/24 04:22:02;;;;;;;10.50;9.48;;;;;;;17.17;82.77;97294.13;4927813;29;20039;-62
2021/05/24 04:24:27;;;;;;;10.82;8.05;;;;;;;17.31;83.45;97326.88;4926263;29;20063;-62
2021/05/24 04:26:53;;;;;;;11.35;9.45;;;;;;;17.40;83.66;97307.63;4927561;29;20527;-63
2021/05/24 04:29:18;;;;;;;17.05;11.13;;;;;;;17.52;82.88;97315.56;4928120;29;20520;-62
2021/05/24 04:31:44;;;;;;;13.48;9.63;;;;;;;17.18;82.42;97269.75;4926134;29;20071;-62
2021/05/24 04:34:09;;;;;;;9.18;8.00;;;;;;;17.54;82.97;97313.97;4958378;28;20110;-63
2021/05/24 04:36:34;;;;;;;9.40;8.45;;;;;;;17.67;82.53;97317.09;4925410;29;20142;-63
2021/05/24 04:39:00;;;;;;;8.85;7.95;;;;;;;17.70;82.83;97321.88;4927554;29;20075;-63
2021/05/24 04:41:26;;;;;;;8.60;7.80;;;;;;;17.86;82.59;97330.59;4927451;29;20071;-63
2021/05/24 04:43:56;;;;;;;11.32;8.68;;;;;;;17.59;82.33;97265.13;4927571;29;20044;-62
2021/05/24 04:46:22;;;;;;;10.15;8.65;;;;;;;18.13;82.31;97323.16;4927501;29;20044;-64
2021/05/24 04:48:47;;;;;;;11.48;8.55;;;;;;;17.71;82.21;97231.00;4926148;29;20040;-63
2021/05/24 04:51:13;;;;;;;9.60;8.20;;;;;;;17.72;80.76;97213.78;4908464;29;20499;-63
2021/05/24 04:53:38;;;;;;;11.13;8.88;;;;;;;18.60;80.07;97302.72;4906970;29;20538;-63
2021/05/24 04:56:04;;;;;;;10.38;8.32;;;;;;;19.04;80.61;97344.75;4908201;29;20044;-63
2021/05/24 04:58:29;;;;;;;12.32;8.32;;;;;;;19.34;79.51;97361.69;4908469;29;20114;-62
2021/05/24 05:00:56;;;;;;;13.68;9.52;;;;;;;19.73;77.74;97374.44;4907693;29;20044;-62
2021/05/24 05:03:22;;;;;;;13.07;9.57;;;;;;;20.25;76.21;97361.63;4908148;29;20503;-62
2021/05/24 05:05:47;;;;;;;12.10;8.63;;;;;;;20.40;73.95;97354.53;4907951;29;20044;-63
2021/05/24 05:08:13;;;;;;;11.80;9.07;;;;;;;20.88;72.90;97354.91;4908586;29;20114;-62
2021/05/24 05:10:38;;;;;;;11.48;8.50;;;;;;;21.13;71.27;97335.53;4938079;28;20040;-63
2021/05/24 05:13:04;;;;;;;8.57;7.53;;;;;;;21.29;71.01;97307.44;4908053;29;20028;-61
2021/05/24 05:15:29;;;;;;;8.43;7.63;;;;;;;21.30;70.32;97269.56;4907826;29;20062;-64
2021/05/24 05:17:55;;;;;;;8.70;7.10;;;;;;;22.01;68.75;97326.00;4907964;29;20542;-63
2021/05/24 05:20:20;;;;;;;9.00;6.75;;;;;;;21.87;67.81;97309.41;4908006;29;20048;-62
2021/05/24 05:22:46;;;;;;;6.32;5.82;;;;;;;22.01;64.79;97313.91;4908025;29;20161;-62
2021/05/24 05:25:12;;;;;;;6.20;5.57;;;;;;;22.46;63.55;97346.66;4907564;29;20048;-62
2021/05/24 05:27:37;;;;;;;10.98;6.40;;;;;;;22.40;63.46;97310.91;4907821;29;20087;-61
2021/05/24 05:30:05;;;;;;;5.95;5.40;;;;;;;22.87;60.61;97346.06;4907765;29;20048;-62
2021/05/24 05:32:30;;;;;;;7.35;5.80;;;;;;;23.01;59.03;97359.81;4907624;29;20519;-64
2021/05/24 05:34:56;;;;;;;6.30;5.72;;;;;;;22.07;58.53;97233.94;4907610;29;20048;-62
2021/05/24 05:37:22;;;;;;;18.27;13.98;;;;;;;23.16;56.34;97368.66;4907358;29;20028;-62
2021/05/24 05:39:50;;;;;;;8.82;5.85;;;;;;;22.96;55.69;97329.25;4907619;29;20127;-61
2021/05/24 05:42:16;;;;;;;6.45;5.85;;;;;;;23.48;55.59;97368.59;4907507;29;20024;-61
2021/05/24 05:44:41;;;;;;;7.00;5.50;;;;;;;23.70;56.15;97366.75;4937984;29;20510;-62
2021/05/24 05:47:07;;;;;;;6.05;5.18;;;;;;;22.20;53.33;97102.19;4918346;29;20062;-61
2021/05/24 05:49:32;;;;;;;6.70;5.88;;;;;;;24.06;53.10;97457.09;4913210;28;20043;-65
2021/05/24 05:51:58;;;;;;;7.03;5.50;;;;;;;23.97;53.21;97375.66;4909061;29;20036;-61
2021/05/24 05:54:23;;;;;;;7.00;5.32;;;;;;;23.93;51.84;97341.78;4922427;29;20562;-61
2021/05/24 05:56:49;;;;;;;9.65;7.68;;;;;;;24.07;55.84;97373.75;4923066;29;20509;-62
2021/05/24 05:59:18;;;;;;;10.35;6.20;;;;;;;23.58;57.52;97319.44;4926382;29;20038;-63
2021/05/24 06:01:44;;;;;;;9.60;6.65;;;;;;;24.18;53.86;97379.88;4923704;29;20040;-61
2021/05/24 06:04:09;;;;;;;6.50;5.90;;;;;;;23.70;53.71;97299.66;4926019;29;20042;-62
2021/05/24 06:06:35;;;;;;;13.35;7.05;;;;;;;24.39;54.38;97380.00;4921795;29;20035;-66
2021/05/24 06:09:00;;;;;;;10.00;7.32;;;;;;;24.49;53.98;97376.03;4912947;29;20032;-61
2021/05/24 06:11:27;;;;;;;6.03;5.53;;;;;;;24.64;54.27;97380.00;4915161;29;20036;-62
2021/05/24 06:13:52;;;;;;;7.13;6.43;;;;;;;24.44;54.08;97313.50;4926391;29;20042;-63
2021/05/24 06:16:17;;;;;;;7.00;5.28;;;;;;;25.05;51.59;97367.69;4925887;29;20492;-61
2021/05/24 06:18:43;;;;;;;8.38;6.32;;;;;;;25.19;50.33;97381.38;4916604;29;20123;-66
2021/05/24 06:21:08;;;;;;;6.15;5.68;;;;;;;25.11;49.74;97383.66;4923826;29;20040;-62
2021/05/24 06:23:34;;;;;;;5.93;5.25;;;;;;;25.20;48.68;97372.41;4925800;29;20556;-66
2021/05/24 06:25:59;;;;;;;8.30;5.70;;;;;;;24.98;47.87;97312.03;4925426;29;20131;-66
2021/05/24 06:28:25;;;;;;;6.30;5.28;;;;;;;23.16;46.01;97018.97;4926833;29;20028;-68
2021/05/24 06:30:50;;;;;;;6.20;5.32;;;;;;;25.62;44.60;97381.47;4925184;29;20102;-60
2021/05/24 06:33:16;;;;;;;8.93;5.38;;;;;;;23.74;44.49;97084.53;4925135;29;20043;-61
2021/05/24 06:35:41;;;;;;;7.97;5.72;;;;;;;25.98;43.41;97381.69;4912741;29;20551;-67
2021/05/24 06:38:07;;;;;;;7.75;5.78;;;;;;;25.01;43.10;97237.41;4917139;29;20437;-64
2021/05/24 06:40:32;;;;;;;6.18;5.53;;;;;;;25.99;43.11;97388.94;4911543;29;20044;-64
2021/05/24 06:42:58;;;;;;;6.75;5.57;;;;;;;25.60;42.69;97320.72;4939460;29;20134;-66
2021/05/24 06:45:23;;;;;;;10.18;5.35;;;;;;;25.98;42.62;97352.50;4925370;29;20056;-62
2021/05/24 06:47:49;;;;;;;9.05;5.10;;;;;;;26.33;42.16;97377.50;4925622;29;20480;-63
2021/05/24 06:50:15;;;;;;;7.28;5.82;;;;;;;26.25;41.80;97355.53;4908730;29;20052;-62
2021/05/24 06:52:41;;;;;;;6.55;5.88;;;;;;;26.43;41.29;97389.72;4925495;29;20067;-64
2021/05/24 06:55:08;;;;;;;5.90;5.30;;;;;;;26.47;40.98;97374.09;4921553;29;20491;-61
2021/05/24 06:57:33;;;;;;;8.63;5.85;;;;;;;26.66;40.07;97401.34;4922160;29;20503;-62
2021/05/24 06:59:59;;;;;;;7.28;6.20;;;;;;;26.13;40.49;97305.28;4911275;29;20123;-61
2021/05/24 07:02:24;;;;;;;11.43;6.05;;;;;;;26.72;40.61;97373.09;4913823;29;20035;-66
2021/05/24 07:04:50;;;;;;;7.15;6.22;;;;;;;26.99;40.58;97407.28;4922131;29;20119;-66
2021/05/24 07:07:15;;;;;;;7.75;5.38;;;;;;;25.02;39.67;97111.41;4918126;29;20035;-62
2021/05/24 07:09:41;;;;;;;9.63;5.78;;;;;;;27.10;38.67;97421.06;4928453;29;20427;-62
2021/05/24 07:12:07;;;;;;;9.65;6.18;;;;;;;25.48;38.62;97151.38;4917104;29;20095;-65
2021/05/24 07:14:32;;;;;;;6.28;5.68;;;;;;;27.40;39.12;97429.53;4950564;28;20043;-64
2021/05/24 07:16:58;;;;;;;6.85;5.80;;;;;;;27.57;38.42;97433.63;4909529;29;20483;-60
2021/05/24 07:19:24;;;;;;;7.90;7.10;;;;;;;27.26;37.53;97378.91;4913098;29;20106;-64
2021/05/24 07:21:50;;;;;;;6.30;5.72;;;;;;;27.62;38.49;97435.06;4927728;29;20067;-65
2021/05/24 07:24:16;;;;;;;8.93;6.60;;;;;;;27.61;37.71;97451.38;4919138;29;20138;-63
2021/05/24 07:26:41;;;;;;;11.18;6.43;;;;;;;26.89;37.79;97285.47;4921917;29;20040;-63
2021/05/24 07:29:07;;;;;;;7.35;5.85;;;;;;;28.06;38.50;97437.13;4924769;29;20106;-67
2021/05/24 07:31:32;;;;;;;8.48;6.10;;;;;;;27.42;38.02;97353.00;4920350;29;20479;-63
2021/05/24 07:33:58;;;;;;;7.80;6.40;;;;;;;26.54;37.28;97177.69;4917997;29;20039;-62
2021/05/24 07:36:23;;;;;;;6.35;5.85;;;;;;;28.32;37.00;97442.47;4934224;29;20534;-60
2021/05/24 07:38:49;;;;;;;6.25;5.72;;;;;;;26.38;36.69;97149.56;4923026;29;20066;-62
2021/05/24 07:41:15;;;;;;;7.70;6.93;;;;;;;28.34;35.14;97411.44;4925316;29;20601;-65
2021/05/24 07:43:41;;;;;;;6.95;6.32;;;;;;;27.94;34.92;97355.50;4926253;29;20455;-63
2021/05/24 07:46:07;;;;;;;7.03;6.20;;;;;;;28.70;34.23;97451.25;4927608;29;20106;-61
2021/05/24 07:48:33;;;;;;;9.52;7.53;;;;;;;28.01;37.00;97388.56;4921050;29;20028;-61
2021/05/24 07:51:00;;;;;;;7.40;6.57;;;;;;;27.90;37.13;97405.38;4928370;29;20545;-64
2021/05/24 07:53:26;;;;;;;15.98;9.93;;;;;;;26.70;37.58;97230.63;4946953;28;20034;-66
2021/05/24 07:55:51;;;;;;;10.35;7.82;;;;;;;28.04;38.44;97451.06;4929170;28;20035;-61
2021/05/24 07:58:16;;;;;;;11.95;7.55;;;;;;;27.77;37.33;97373.38;4925365;29;20038;-63
2021/05/24 08:00:42;;;;;;;13.15;8.52;;;;;;;28.00;37.62;97381.28;4908942;29;20516;-60
2021/05/24 08:03:07;;;;;;;12.88;8.90;;;;;;;28.33;36.77;97432.66;4939152;29;20174;-64
2021/05/24 08:05:33;;;;;;;29.30;16.48;;;;;;;28.33;36.83;97444.06;4939552;29;20036;-62
2021/05/24 08:07:58;;;;;;;15.10;10.40;;;;;;;28.03;37.84;97443.78;4908454;29;20040;-61
2021/05/24 08:10:24;;;;;;;19.25;9.23;;;;;;;27.23;37.95;97453.81;4910175;29;20036;-63
2021/05/24 08:12:50;;;;;;;6.60;5.90;;;;;;;27.29;37.84;97420.66;4938177;28;20039;-62
2021/05/24 08:15:19;;;;;;;11.15;6.85;;;;;;;26.46;37.90;97337.63;4944477;28;20553;-62
2021/05/24 08:17:46;;;;;;;7.72;6.30;;;;;;;27.23;37.96;97465.19;4926438;29;20042;-60
2021/05/24 08:20:12;;;;;;;10.27;6.00;;;;;;;26.47;38.73;97415.91;4926893;29;20255;-61
2021/05/24 08:22:38;;;;;;;8.00;6.15;;;;;;;26.86;39.58;97449.25;4927901;29;20122;-63
2021/05/24 08:25:06;;;;;;;7.30;5.47;;;;;;;26.21;38.91;97440.06;4926301;29;20195;-63
2021/05/24 08:27:31;;;;;;;6.70;6.07;;;;;;;25.95;38.11;97427.25;4942051;29;20063;-62
2021/05/24 08:29:57;;;;;;;7.38;6.00;;;;;;;26.13;38.62;97399.78;4927874;29;20078;-62
2021/05/24 08:32:23;;;;;;;9.20;6.22;;;;;;;26.96;37.59;97467.94;4926503;29;20055;-61
2021/05/24 08:34:48;;;;;;;7.10;5.63;;;;;;;27.51;36.56;97464.00;4925670;29;20050;-62
2021/05/24 08:37:13;;;;;;;7.65;5.80;;;;;;;27.50;36.46;97416.88;4926595;29;20400;-62
2021/05/24 08:39:40;;;;;;;6.57;5.97;;;;;;;27.23;36.85;97458.69;4924864;29;20043;-60
2021/05/24 08:42:07;;;;;;;6.45;5.65;;;;;;;26.30;37.02;97448.66;4925158;29;20442;-62
2021/05/24 08:44:34;;;;;;;9.70;7.28;;;;;;;26.81;36.95;97449.88;4927263;29;20482;-63
2021/05/24 08:47:01;;;;;;;6.85;5.70;;;;;;;27.50;36.35;97451.03;4925044;29;20035;-63
2021/05/24 08:49:29;;;;;;;11.05;6.50;;;;;;;27.84;36.38;97447.88;4957876;28;20042;-61
2021/05/24 08:51:54;;;;;;;8.93;6.10;;;;;;;27.94;37.59;97446.66;4925464;29;20027;-61
2021/05/24 08:54:20;;;;;;;6.32;5.88;;;;;;;27.58;36.61;97440.94;4926576;29;20038;-61
2021/05/24 08:56:46;;;;;;;7.28;6.38;;;;;;;27.74;36.15;97437.75;4924163;29;20043;-62
2021/05/24 08:59:11;;;;;;;6.82;5.32;;;;;;;27.02;38.02;97437.63;4926798;29;20451;-61
2021/05/24 09:01:37;;;;;;;9.38;5.93;;;;;;;27.32;38.82;97445.31;4924833;29;20046;-62
2021/05/24 09:04:05;;;;;;;10.82;6.40;;;;;;;27.30;36.12;97447.84;4926965;29;20498;-62
2021/05/24 09:06:44;;;;;;;8.45;6.40;;;;;;;27.65;36.40;97423.53;4926532;29;20036;-62
2021/05/24 09:09:16;;;;;;;9.93;6.82;;;;;;;27.82;37.39;97432.56;4956411;28;20054;-60
2021/05/24 09:11:44;;;;;;;7.23;6.40;;;;;;;27.65;37.53;97417.81;4926835;29;20047;-62
2021/05/24 09:14:13;;;;;;;13.00;7.30;;;;;;;27.60;37.64;97431.91;4926787;29;20048;-62
2021/05/24 09:16:38;;;;;;;10.88;6.85;;;;;;;27.50;37.16;97425.44;4956499;28;20529;-61
2021/05/24 09:19:20;;;;;;;9.98;6.30;;;;;;;27.74;36.66;97431.28;4926777;29;20071;-61
2021/05/24 09:22:11;;;;;;;10.52;6.57;;;;;;;27.79;35.11;97365.94;4926992;29;20039;-62
2021/05/24 09:24:41;;;;;;;7.63;6.05;;;;;;;27.53;34.65;97387.47;4927222;29;20103;-61
2021/05/24 09:27:28;;;;;;;8.65;6.40;;;;;;;28.09;34.80;97438.22;4926583;29;20114;-61
2021/05/24 09:29:57;;;;;;;5.97;5.43;;;;;;;27.97;34.62;97434.31;4926087;29;20118;-62
2021/05/24 09:32:25;;;;;;;8.88;6.15;;;;;;;28.17;34.38;97398.81;4925325;29;20048;-61
2021/05/24 09:34:52;;;;;;;6.93;6.00;;;;;;;28.60;34.33;97435.44;4924405;29;20047;-61
2021/05/24 09:37:28;;;;;;;9.35;5.82;;;;;;;28.77;33.41;97425.25;4925820;29;20069;-61
2021/05/24 09:39:53;;;;;;;10.20;6.38;;;;;;;28.61;34.17;97442.75;4926449;29;20579;-61
2021/05/24 09:42:19;;;;;;;8.90;6.53;;;;;;;28.82;34.19;97442.50;4926762;29;20039;-61
2021/05/24 09:44:53;;;;;;;9.52;6.30;;;;;;;27.72;34.07;97349.19;4927071;29;20042;-62
2021/05/24 09:47:36;;;;;;;6.40;5.80;;;;;;;28.70;33.99;97428.44;4925080;29;20061;-60
2021/05/24 09:50:20;;;;;;;6.77;6.13;;;;;;;29.20;32.99;97433.28;4926200;29;20032;-60
2021/05/24 09:52:47;;;;;;;6.78;6.05;;;;;;;29.15;32.88;97425.41;4926029;29;20306;-61
2021/05/24 09:55:17;;;;;;;8.35;6.47;;;;;;;29.48;32.58;97426.91;4924354;29;20040;-60
2021/05/24 09:58:00;;;;;;;7.82;7.10;;;;;;;29.67;33.01;97421.88;4926730;29;20102;-63
2021/05/24 10:00:38;;;;;;;7.30;6.60;;;;;;;29.24;33.89;97417.53;4924455;29;20038;-64
2021/05/24 10:03:06;;;;;;;6.93;6.47;;;;;;;29.46;33.65;97415.22;4925185;28;20046;-63
2021/05/24 10:05:48;;;;;;;6.97;6.22;;;;;;;28.91;33.24;97333.25;4925971;29;20031;-62
2021/05/24 10:08:14;;;;;;;8.52;6.47;;;;;;;29.52;33.62;97415.31;4926183;29;20437;-62
2021/05/24 10:10:41;;;;;;;7.30;6.63;;;;;;;29.13;34.98;97405.88;4926182;29;20063;-62
2021/05/24 10:13:07;;;;;;;6.53;5.88;;;;;;;28.58;35.09;97378.13;4924486;28;20040;-61
2021/05/24 10:15:37;;;;;;;7.80;6.32;;;;;;;28.69;34.24;97324.22;4925985;29;20083;-62
2021/05/24 10:18:05;;;;;;;7.60;6.95;;;;;;;29.12;35.00;97392.09;4926563;29;20042;-62
2021/05/24 10:20:32;;;;;;;7.30;6.68;;;;;;;29.62;33.34;97385.41;4926374;29;20042;-62
2021/05/24 10:22:58;;;;;;;9.57;8.07;;;;;;;29.58;34.51;97345.59;4926089;29;20032;-62
2021/05/24 10:25:24;;;;;;;9.68;8.27;;;;;;;30.25;33.83;97393.44;4925734;29;20571;-61
2021/05/24 10:27:51;;;;;;;7.10;6.68;;;;;;;30.40;32.22;97388.47;4925963;29;20115;-62
2021/05/24 10:30:17;;;;;;;8.15;6.68;;;;;;;30.43;33.11;97390.34;4923686;28;20522;-61
2021/05/24 10:33:05;;;;;;;6.93;6.22;;;;;;;30.88;31.28;97389.81;4926258;29;20154;-62
2021/05/24 10:35:40;;;;;;;8.60;7.70;;;;;;;30.75;32.34;97397.91;4925699;29;20079;-62
2021/05/24 10:38:32;;;;;;;9.88;6.68;;;;;;;31.02;32.38;97384.53;4956940;28;20039;-62
2021/05/24 10:41:14;;;;;;;9.88;8.10;;;;;;;30.93;32.43;97383.41;4924230;29;20048;-61
2021/05/24 10:43:55;;;;;;;9.90;7.60;;;;;;;31.07;32.53;97380.97;4929757;29;20043;-62
2021/05/24 10:46:24;;;;;;;7.82;7.10;;;;;;;31.03;32.36;97372.59;4927388;29;20085;-63
2021/05/24 10:49:02;;;;;;;8.75;7.60;;;;;;;31.09;32.31;97369.81;4960159;28;20039;-60
2021/05/24 10:51:45;;;;;;;9.32;6.88;;;;;;;29.68;34.20;97372.06;4927698;29;20047;-61
2021/05/24 10:54:20;;;;;;;;;;;;;;;30.16;33.97;97367.75;4929866;29;20039;-62
2021/05/24 10:56:58;;;;;;;8.80;7.03;;;;;;;30.04;33.35;97365.19;4929513;29;19926;-62
2021/05/24 10:59:39;;;;;;;7.53;6.18;;;;;;;29.29;33.84;97356.94;4960086;28;20035;-63
2021/05/24 11:02:34;;;;;;;7.53;6.30;;;;;;;28.87;34.52;97324.09;4929337;29;20050;-60
2021/05/24 11:05:07;;;;;;;10.45;6.75;;;;;;;30.07;34.37;97353.56;4927403;29;20055;-62
2021/05/24 11:07:44;;;;;;;11.48;6.47;;;;;;;30.51;33.65;97337.19;4929280;29;20046;-61
2021/05/24 11:10:13;;;;;;;7.32;6.63;;;;;;;31.07;33.62;97363.78;4928819;29;20107;-62
2021/05/24 11:12:39;;;;;;;7.25;6.55;;;;;;;30.35;33.70;97356.94;4929886;29;20511;-62
2021/05/24 11:15:07;;;;;;;7.78;6.53;;;;;;;29.07;34.21;97327.16;4959925;28;20574;-61
2021/05/24 11:18:03;;;;;;;9.52;8.45;;;;;;;30.17;34.28;97375.06;4927418;29;20040;-63
2021/05/24 11:20:31;;;;;;;11.10;7.00;;;;;;;30.76;33.43;97370.13;4928943;29;20043;-62
2021/05/24 11:23:24;;;;;;;9.25;7.70;;;;;;;31.12;33.77;97363.09;4929323;29;20200;-63
2021/05/24 11:25:55;;;;;;;12.63;8.07;;;;;;;31.25;33.38;97367.19;4958979;28;20040;-61
2021/05/24 11:28:32;;;;;;;8.10;7.32;;;;;;;31.02;33.18;97365.28;4929207;29;20752;-61
2021/05/24 11:31:17;;;;;;;10.45;7.47;;;;;;;30.43;33.77;97378.91;4928396;29;20052;-62
2021/05/24 11:33:53;;;;;;;7.25;6.40;;;;;;;29.85;34.47;97376.00;4927387;29;20418;-61